createdAt,value
2018-03-27T00:00:48.579Z,3.60
2018-03-27T00:03:16.666Z,3.60
2018-03-27T00:05:44.654Z,3.60
2018-03-27T00:08:13.016Z,3.60
2018-03-27T00:10:40.620Z,3.60
2018-03-27T00:13:08.214Z,3.60
2018-03-27T00:15:35.822Z,3.70
2018-03-27T00:18:03.382Z,3.70
2018-03-27T00:20:30.947Z,3.80
2018-03-27T00:22:58.562Z,3.90
2018-03-27T00:25:26.085Z,4.00
2018-03-27T00:28:05.394Z,4.20
2018-03-27T00:30:44.725Z,4.30
2018-03-27T00:33:24.181Z,4.40
2018-03-27T00:36:03.490Z,4.40
2018-03-27T00:38:43.203Z,4.40
2018-03-27T00:50:10.058Z,4.40
2018-03-27T00:52:38.981Z,4.40
2018-03-27T00:55:07.962Z,4.40
2018-03-27T00:57:37.562Z,4.40
2018-03-27T01:00:05.945Z,4.40
2018-03-27T01:02:33.513Z,4.50
2018-03-27T01:05:06.615Z,4.50
2018-03-27T01:07:34.734Z,4.60
2018-03-27T01:10:02.571Z,4.60
2018-03-27T01:12:30.201Z,4.60
2018-03-27T01:14:57.784Z,4.60
2018-03-27T01:17:26.226Z,4.50
2018-03-27T01:19:53.747Z,4.50
2018-03-27T01:22:21.702Z,4.40
2018-03-27T01:24:49.336Z,4.50
2018-03-27T01:27:16.926Z,4.40
2018-03-27T01:29:44.494Z,4.40
2018-03-27T01:32:12.503Z,4.50
2018-03-27T01:34:40.966Z,4.50
2018-03-27T01:37:08.513Z,4.50
2018-03-27T01:39:36.718Z,4.60
2018-03-27T01:42:05.157Z,4.60
2018-03-27T01:44:32.748Z,4.50
2018-03-27T01:47:00.299Z,4.50
2018-03-27T01:49:28.212Z,4.40
2018-03-27T01:51:55.917Z,4.40
2018-03-27T01:54:23.817Z,4.30
2018-03-27T01:56:51.496Z,4.30
2018-03-27T01:59:19.156Z,4.40
2018-03-27T02:01:46.807Z,4.40
2018-03-27T02:04:14.438Z,4.30
2018-03-27T02:06:42.949Z,4.30
2018-03-27T02:09:10.559Z,4.30
2018-03-27T02:11:43.842Z,4.40
2018-03-27T02:14:17.057Z,4.50
2018-03-27T02:16:55.061Z,4.40
2018-03-27T02:19:28.981Z,4.40
2018-03-27T02:21:56.086Z,4.40
2018-03-27T02:24:24.955Z,4.30
2018-03-27T02:26:54.214Z,4.20
2018-03-27T02:29:22.180Z,4.00
2018-03-27T02:31:50.638Z,3.90
2018-03-27T02:34:18.205Z,3.90
2018-03-27T02:36:45.749Z,3.80
2018-03-27T02:39:13.396Z,3.80
2018-03-27T02:41:41.185Z,3.70
2018-03-27T02:44:08.766Z,3.70
2018-03-27T02:46:37.548Z,3.70
2018-03-27T02:49:05.730Z,3.80
2018-03-27T02:51:33.341Z,3.80
2018-03-27T02:54:01.552Z,3.80
2018-03-27T02:56:29.097Z,3.90
2018-03-27T02:58:56.684Z,3.90
2018-03-27T03:01:24.289Z,4.00
2018-03-27T03:03:51.823Z,4.10
2018-03-27T03:06:19.341Z,4.20
2018-03-27T03:08:46.944Z,4.20
2018-03-27T03:11:14.493Z,4.30
2018-03-27T03:13:42.416Z,4.30
2018-03-27T03:16:09.997Z,4.30
2018-03-27T03:18:37.569Z,4.30
2018-03-27T03:21:05.523Z,4.30
2018-03-27T03:23:33.050Z,4.30
2018-03-27T03:26:00.597Z,4.40
2018-03-27T03:28:28.186Z,4.30
2018-03-27T03:30:56.829Z,4.30
2018-03-27T03:33:24.388Z,4.30
2018-03-27T03:35:52.483Z,4.20
2018-03-27T03:38:20.116Z,4.10
2018-03-27T03:40:48.061Z,4.00
2018-03-27T03:43:16.643Z,4.00
2018-03-27T03:45:44.252Z,4.00
2018-03-27T03:48:11.846Z,3.90
2018-03-27T03:50:39.799Z,3.90
2018-03-27T03:53:07.435Z,3.80
2018-03-27T03:55:34.961Z,3.80
2018-03-27T03:58:02.629Z,3.80
2018-03-27T04:00:30.199Z,3.70
2018-03-27T04:02:58.456Z,3.70
2018-03-27T04:05:25.963Z,3.50
2018-03-27T04:07:53.729Z,3.40
2018-03-27T04:10:23.874Z,3.30
2018-03-27T04:12:52.855Z,3.20
2018-03-27T04:15:20.944Z,3.10
2018-03-27T04:17:49.382Z,3.20
2018-03-27T04:20:29.975Z,3.20
2018-03-27T04:23:00.277Z,3.30
2018-03-27T04:25:27.867Z,3.30
2018-03-27T04:28:11.936Z,3.40
2018-03-27T04:30:39.895Z,3.50
2018-03-27T04:33:07.454Z,3.50
2018-03-27T04:35:35.033Z,3.60
2018-03-27T04:38:03.094Z,3.70
2018-03-27T04:40:30.676Z,3.70
2018-03-27T04:42:58.272Z,3.70
2018-03-27T04:45:25.813Z,3.70
2018-03-27T04:47:53.361Z,3.60
2018-03-27T04:50:20.900Z,3.50
2018-03-27T04:52:48.844Z,3.40
2018-03-27T04:55:16.401Z,3.40
2018-03-27T04:57:44.601Z,3.30
2018-03-27T05:00:14.282Z,3.30
2018-03-27T05:02:42.721Z,3.20
2018-03-27T05:05:10.250Z,3.10
2018-03-27T05:07:38.218Z,3.10
2018-03-27T05:10:06.498Z,3.10
2018-03-27T05:12:35.098Z,3.10
2018-03-27T05:15:03.039Z,3.20
2018-03-27T05:17:30.593Z,3.20
2018-03-27T05:19:58.138Z,3.20
2018-03-27T05:22:25.686Z,3.20
2018-03-27T05:24:53.285Z,3.20
2018-03-27T05:27:20.821Z,3.20
2018-03-27T05:29:48.386Z,3.20
2018-03-27T05:32:15.982Z,3.20
2018-03-27T05:34:43.573Z,3.30
2018-03-27T05:37:11.118Z,3.30
2018-03-27T05:39:38.709Z,3.30
2018-03-27T05:42:06.277Z,3.30
2018-03-27T05:44:33.849Z,3.30
2018-03-27T05:47:01.442Z,3.30
2018-03-27T05:49:28.967Z,3.20
2018-03-27T05:51:56.553Z,3.20
2018-03-27T05:54:24.552Z,3.20
2018-03-27T05:56:52.122Z,3.20
2018-03-27T05:59:19.683Z,3.20
2018-03-27T06:01:47.290Z,3.20
2018-03-27T06:04:16.796Z,3.30
2018-03-27T06:06:44.730Z,3.30
2018-03-27T06:09:12.313Z,3.30
2018-03-27T06:11:39.870Z,3.30
2018-03-27T06:14:07.885Z,3.30
2018-03-27T06:16:35.453Z,3.30
2018-03-27T06:19:03.033Z,3.30
2018-03-27T06:21:30.618Z,3.40
2018-03-27T06:23:58.201Z,3.40
2018-03-27T06:26:26.454Z,3.50
2018-03-27T06:28:54.015Z,3.60
2018-03-27T06:31:21.569Z,3.70
2018-03-27T06:33:49.132Z,3.70
2018-03-27T06:36:17.155Z,3.90
2018-03-27T06:38:44.698Z,4.00
2018-03-27T06:41:12.306Z,4.10
2018-03-27T06:43:39.888Z,4.40
2018-03-27T06:46:07.949Z,4.80
2018-03-27T06:48:35.546Z,5.10
2018-03-27T06:51:06.345Z,5.30
2018-03-27T06:53:34.201Z,5.40
2018-03-27T06:56:01.784Z,5.50
2018-03-27T06:58:31.112Z,5.60
2018-03-27T07:00:58.652Z,5.60
2018-03-27T07:03:26.791Z,5.30
2018-03-27T07:05:55.487Z,5.30
2018-03-27T07:08:23.045Z,5.10
2018-03-27T07:10:50.553Z,5.00
2018-03-27T07:13:18.155Z,5.10
2018-03-27T07:15:45.973Z,5.20
2018-03-27T07:18:13.953Z,5.40
2018-03-27T07:20:41.818Z,5.40
2018-03-27T07:23:09.474Z,5.50
2018-03-27T07:25:37.088Z,5.70
2018-03-27T07:28:05.462Z,5.90
2018-03-27T07:30:33.046Z,6.00
2018-03-27T07:33:00.841Z,6.10
2018-03-27T07:35:28.499Z,6.10
2018-03-27T07:37:57.196Z,6.20
2018-03-27T07:40:24.773Z,6.20
2018-03-27T07:42:52.343Z,6.30
2018-03-27T07:45:20.611Z,6.40
2018-03-27T07:47:48.169Z,6.70
2018-03-27T07:50:15.735Z,6.90
2018-03-27T07:52:43.304Z,7.10
2018-03-27T07:55:10.894Z,7.30
2018-03-27T07:57:38.556Z,7.50
2018-03-27T08:00:06.124Z,7.60
2018-03-27T08:02:34.089Z,8.10
2018-03-27T08:05:02.077Z,8.20
2018-03-27T08:07:29.998Z,8.40
2018-03-27T08:09:57.565Z,8.40
2018-03-27T08:12:25.169Z,8.30
2018-03-27T08:14:53.610Z,8.30
2018-03-27T08:17:21.219Z,8.30
2018-03-27T08:19:48.838Z,8.40
2018-03-27T08:22:16.466Z,8.50
2018-03-27T08:24:44.065Z,8.60
2018-03-27T08:27:11.609Z,8.60
2018-03-27T08:29:39.175Z,8.70
2018-03-27T08:32:06.756Z,8.80
2018-03-27T08:34:34.758Z,8.80
2018-03-27T08:37:02.309Z,8.80
2018-03-27T08:39:29.877Z,8.60
2018-03-27T08:41:57.494Z,8.40
2018-03-27T08:44:25.003Z,8.40
2018-03-27T08:46:52.570Z,8.50
2018-03-27T08:49:20.184Z,8.60
2018-03-27T08:51:48.416Z,8.90
2018-03-27T08:54:16.056Z,8.90
2018-03-27T08:56:43.622Z,9.10
2018-03-27T08:59:11.201Z,9.20
2018-03-27T09:01:38.769Z,9.30
2018-03-27T09:04:07.215Z,9.40
2018-03-27T09:06:34.824Z,9.50
2018-03-27T09:09:02.385Z,9.60
2018-03-27T09:11:30.206Z,9.60
2018-03-27T09:13:57.745Z,9.50
2018-03-27T09:16:25.413Z,9.70
2018-03-27T09:18:52.955Z,9.80
2018-03-27T09:21:20.989Z,10.20
2018-03-27T09:23:48.528Z,10.20
2018-03-27T09:26:16.111Z,10.30
2018-03-27T09:28:43.755Z,10.50
2018-03-27T09:31:12.097Z,10.60
2018-03-27T09:33:39.662Z,10.80
2018-03-27T09:36:07.250Z,10.80
2018-03-27T09:38:34.916Z,10.90
2018-03-27T09:41:02.499Z,11.00
2018-03-27T09:43:30.084Z,11.40
2018-03-27T09:45:58.040Z,12.10
2018-03-27T09:48:25.606Z,12.10
2018-03-27T09:50:53.632Z,12.10
2018-03-27T09:53:21.255Z,12.10
2018-03-27T09:55:49.564Z,11.90
2018-03-27T09:58:17.855Z,11.90
2018-03-27T10:00:50.338Z,12.20
2018-03-27T10:03:17.937Z,12.80
2018-03-27T10:05:46.088Z,13.60
2018-03-27T10:08:13.661Z,13.60
2018-03-27T10:10:41.215Z,13.70
2018-03-27T10:13:09.206Z,13.90
2018-03-27T10:15:36.798Z,13.90
2018-03-27T10:18:04.342Z,13.80
2018-03-27T10:20:31.894Z,13.70
2018-03-27T10:22:59.479Z,13.80
2018-03-27T10:25:27.034Z,14.00
2018-03-27T10:27:54.618Z,14.20
2018-03-27T10:30:22.257Z,14.60
2018-03-27T10:32:49.956Z,15.00
2018-03-27T10:35:17.556Z,15.00
2018-03-27T10:37:45.164Z,15.00
2018-03-27T10:40:12.855Z,14.80
2018-03-27T10:42:40.477Z,14.50
2018-03-27T10:45:08.056Z,14.60
2018-03-27T10:47:35.694Z,14.50
2018-03-27T10:50:03.270Z,14.50
2018-03-27T10:52:30.848Z,14.40
2018-03-27T10:54:58.426Z,14.30
2018-03-27T10:57:26.389Z,13.80
2018-03-27T10:59:53.942Z,13.80
2018-03-27T11:02:21.923Z,13.10
2018-03-27T11:04:49.900Z,12.80
2018-03-27T11:07:17.445Z,12.80
2018-03-27T11:09:45.399Z,12.30
2018-03-27T11:12:13.013Z,12.30
2018-03-27T11:14:40.573Z,12.20
2018-03-27T11:17:09.514Z,11.80
2018-03-27T11:19:37.053Z,11.80
2018-03-27T11:22:04.656Z,11.70
2018-03-27T11:24:32.287Z,11.60
2018-03-27T11:27:00.022Z,11.70
2018-03-27T11:29:27.690Z,11.90
2018-03-27T11:31:55.642Z,12.40
2018-03-27T11:34:23.191Z,12.40
2018-03-27T11:36:51.314Z,12.70
2018-03-27T11:39:18.881Z,12.90
2018-03-27T11:41:46.402Z,13.10
2018-03-27T11:44:13.972Z,13.30
2018-03-27T11:46:41.579Z,13.30
2018-03-27T11:49:09.559Z,13.70
2018-03-27T11:51:37.601Z,14.30
2018-03-27T11:54:05.192Z,14.30
2018-03-27T11:56:32.982Z,14.70
2018-03-27T11:59:00.572Z,14.90
2018-03-27T12:01:28.193Z,15.20
2018-03-27T12:03:55.762Z,15.50
2018-03-27T12:06:23.328Z,15.40
2018-03-27T12:08:50.918Z,14.90
2018-03-27T12:11:18.458Z,14.20
2018-03-27T12:13:46.031Z,13.70
2018-03-27T12:16:13.590Z,13.40
2018-03-27T12:18:41.190Z,13.30
2018-03-27T12:21:08.786Z,13.40
2018-03-27T12:23:36.393Z,13.60
2018-03-27T12:26:04.376Z,14.20
2018-03-27T12:28:33.299Z,14.20
2018-03-27T12:31:00.890Z,14.30
2018-03-27T12:33:28.480Z,15.00
2018-03-27T12:35:56.417Z,16.20
2018-03-27T12:38:23.977Z,16.20
2018-03-27T12:40:51.564Z,16.30
2018-03-27T12:43:19.206Z,16.30
2018-03-27T12:45:46.790Z,16.50
2018-03-27T12:48:14.744Z,17.90
2018-03-27T12:50:42.328Z,17.90
2018-03-27T12:53:10.299Z,20.90
2018-03-27T12:55:37.900Z,20.90
2018-03-27T12:58:05.622Z,21.90
2018-03-27T13:00:33.182Z,22.60
2018-03-27T13:03:01.277Z,21.80
2018-03-27T13:05:28.840Z,21.70
2018-03-27T13:07:56.390Z,22.00
2018-03-27T13:10:23.966Z,22.70
2018-03-27T13:12:51.518Z,23.00
2018-03-27T13:15:19.137Z,23.00
2018-03-27T13:17:46.678Z,21.60
2018-03-27T13:20:14.289Z,20.10
2018-03-27T13:22:41.840Z,19.60
2018-03-27T13:25:09.416Z,19.30
2018-03-27T13:27:36.995Z,19.80
2018-03-27T13:30:04.546Z,20.00
2018-03-27T13:32:32.151Z,19.80
2018-03-27T13:34:59.729Z,19.10
2018-03-27T13:37:27.669Z,17.40
2018-03-27T13:39:56.062Z,17.40
2018-03-27T13:42:23.651Z,17.10
2018-03-27T13:44:51.235Z,16.90
2018-03-27T13:47:18.825Z,16.60
2018-03-27T13:49:46.383Z,16.20
2018-03-27T13:52:13.938Z,15.80
2018-03-27T13:54:41.504Z,15.50
2018-03-27T13:57:09.073Z,15.10
2018-03-27T13:59:36.658Z,15.00
2018-03-27T14:02:04.597Z,15.20
2018-03-27T14:04:32.152Z,15.20
2018-03-27T14:06:59.768Z,16.20
2018-03-27T14:09:27.306Z,17.20
2018-03-27T14:11:55.260Z,16.10
2018-03-27T14:14:22.794Z,16.10
2018-03-27T14:16:50.333Z,15.40
2018-03-27T14:19:17.920Z,15.30
2018-03-27T14:21:45.487Z,15.30
2018-03-27T14:24:13.110Z,15.00
2018-03-27T14:26:40.688Z,14.60
2018-03-27T14:29:09.908Z,14.40
2018-03-27T14:31:37.701Z,14.90
2018-03-27T14:34:05.783Z,15.80
2018-03-27T14:36:33.411Z,15.80
2018-03-27T14:39:01.019Z,16.00
2018-03-27T14:41:29.278Z,15.70
2018-03-27T14:43:57.321Z,14.90
2018-03-27T14:46:24.896Z,14.90
2018-03-27T14:48:52.882Z,13.90
2018-03-27T14:51:20.519Z,13.90
2018-03-27T14:53:48.518Z,12.90
2018-03-27T14:56:16.154Z,12.90
2018-03-27T14:58:44.122Z,12.30
2018-03-27T15:01:12.166Z,12.00
2018-03-27T15:03:39.786Z,12.00
2018-03-27T15:06:07.921Z,11.70
2018-03-27T15:08:35.938Z,11.30
2018-03-27T15:11:03.509Z,11.30
2018-03-27T15:13:31.128Z,11.20
2018-03-27T15:15:58.660Z,11.00
2018-03-27T15:18:26.246Z,10.90
2018-03-27T15:20:54.441Z,10.90
2018-03-27T15:23:22.045Z,10.80
2018-03-27T15:25:49.669Z,10.80
2018-03-27T15:28:17.213Z,10.70
2018-03-27T15:30:45.774Z,10.70
2018-03-27T15:33:13.752Z,10.70
2018-03-27T15:35:41.748Z,10.70
2018-03-27T15:38:09.310Z,10.70
2018-03-27T15:40:36.871Z,10.70
2018-03-27T15:43:04.505Z,10.70
2018-03-27T15:45:32.088Z,10.70
2018-03-27T15:47:59.659Z,10.60
2018-03-27T15:50:27.255Z,10.60
2018-03-27T15:52:54.838Z,10.60
2018-03-27T15:55:22.766Z,10.50
2018-03-27T15:57:50.366Z,10.60
2018-03-27T16:00:18.469Z,10.50
2018-03-27T16:02:46.039Z,10.50
2018-03-27T16:05:13.625Z,10.50
2018-03-27T16:07:41.180Z,10.50
2018-03-27T16:10:08.812Z,10.40
2018-03-27T16:12:36.406Z,10.40
2018-03-27T16:15:04.009Z,10.30
2018-03-27T16:17:31.510Z,10.30
2018-03-27T16:19:59.291Z,10.20
2018-03-27T16:22:26.943Z,10.10
2018-03-27T16:24:54.549Z,9.90
2018-03-27T16:27:22.097Z,9.70
2018-03-27T16:29:50.266Z,9.50
2018-03-27T16:32:18.320Z,9.20
2018-03-27T16:34:45.965Z,9.20
2018-03-27T16:37:13.547Z,9.10
2018-03-27T16:39:41.134Z,9.00
2018-03-27T16:42:10.029Z,8.70
2018-03-27T16:44:37.989Z,8.60
2018-03-27T16:47:05.944Z,8.50
2018-03-27T16:49:33.520Z,8.50
2018-03-27T16:52:01.563Z,8.40
2018-03-27T16:54:29.166Z,8.40
2018-03-27T16:56:57.095Z,8.30
2018-03-27T16:59:24.678Z,8.30
2018-03-27T17:01:52.247Z,8.30
2018-03-27T17:04:19.848Z,8.30
2018-03-27T17:06:47.498Z,8.30
2018-03-27T17:09:15.080Z,8.30
2018-03-27T17:11:42.631Z,8.30
2018-03-27T17:14:10.209Z,8.30
2018-03-27T17:16:37.791Z,8.30
2018-03-27T17:19:05.948Z,8.30
2018-03-27T17:21:33.606Z,8.30
2018-03-27T17:24:01.171Z,8.20
2018-03-27T17:26:28.718Z,8.20
2018-03-27T17:28:56.287Z,8.20
2018-03-27T17:31:23.908Z,8.20
2018-03-27T17:33:51.853Z,8.30
2018-03-27T17:36:19.817Z,8.30
2018-03-27T17:38:47.782Z,8.30
2018-03-27T17:41:15.743Z,8.30
2018-03-27T17:43:43.311Z,8.40
2018-03-27T17:46:11.350Z,8.40
2018-03-27T17:48:38.916Z,8.40
2018-03-27T17:51:06.485Z,8.40
2018-03-27T17:53:34.614Z,8.40
2018-03-27T17:56:02.197Z,8.40
2018-03-27T17:58:29.747Z,8.40
2018-03-27T18:00:57.315Z,8.30
2018-03-27T18:03:25.021Z,8.30
2018-03-27T18:05:52.993Z,8.10
2018-03-27T18:08:20.582Z,8.10
2018-03-27T18:10:48.139Z,8.10
